Time;durP1;ratioP1;P1;durP2;ratioP2;P2;SDS_P1;SDS_P2;PMS_P1;PMS_P2;Temp;Humidity;BMP_temperature;BMP_pressure;BME280_temperature;BME280_humidity;BME280_pressure;Samples;Min_cycle;Max_cycle;Signal;HPM_P1;HPM_P2
2022/05/12 00:02:19;;;;;;;3.77;2.90;;;21.40;51.50;;;;;;4979318;28;20472;-44
2022/05/12 00:04:46;;;;;;;5.23;2.90;;;21.40;51.60;;;;;;4979381;28;20480;-44
2022/05/12 00:07:13;;;;;;;4.83;3.10;;;21.30;51.80;;;;;;4977528;28;20492;-44
2022/05/12 00:09:40;;;;;;;6.67;3.13;;;21.30;51.80;;;;;;4959264;28;20895;-44
2022/05/12 00:12:07;;;;;;;3.50;2.43;;;21.30;51.80;;;;;;4976113;28;20492;-43
2022/05/12 00:14:34;;;;;;;3.77;3.43;;;21.30;51.70;;;;;;4974904;28;20476;-43
2022/05/12 00:17:01;;;;;;;3.03;2.73;;;21.30;52.00;;;;;;4976679;28;20759;-43
2022/05/12 00:19:29;;;;;;;2.90;2.30;;;21.20;52.10;;;;;;4981116;28;20983;-44
2022/05/12 00:21:56;;;;;;;5.03;2.70;;;21.20;52.00;;;;;;4974602;28;20519;-44
2022/05/12 00:24:23;;;;;;;5.40;2.30;;;21.20;52.30;;;;;;4974677;28;20843;-45
2022/05/12 00:26:50;;;;;;;2.83;2.53;;;21.20;52.30;;;;;;4972365;28;21225;-45
2022/05/12 00:29:17;;;;;;;2.67;2.30;;;21.20;52.50;;;;;;4969623;28;20707;-45
2022/05/12 00:31:46;;;;;;;2.37;2.17;;;21.10;52.60;;;;;;4977960;28;20931;-45
2022/05/12 00:34:15;;;;;;;3.77;2.23;;;21.10;52.90;;;;;;4977614;28;21032;-45
2022/05/12 00:36:42;;;;;;;3.10;2.47;;;21.10;53.10;;;;;;4975255;28;20584;-45
2022/05/12 00:39:10;;;;;;;2.70;2.40;;;21.10;53.20;;;;;;4965901;28;20476;-44
2022/05/12 00:41:37;;;;;;;3.93;2.40;;;21.10;53.30;;;;;;4975308;28;20473;-44
2022/05/12 00:44:07;;;;;;;6.03;2.30;;;21.10;53.50;;;;;;4976600;28;20468;-43
2022/05/12 00:46:38;;;;;;;3.40;2.10;;;21.00;53.90;;;;;;4961950;28;20465;-43
2022/05/12 00:49:07;;;;;;;2.27;2.07;;;21.00;54.30;;;;;;4978022;28;21051;-43
2022/05/12 00:51:43;;;;;;;2.03;1.93;;;21.00;54.50;;;;;;4958458;28;20849;-44
2022/05/12 00:54:21;;;;;;;2.20;1.93;;;21.00;54.60;;;;;;4976497;28;20842;-44
2022/05/12 00:56:50;;;;;;;3.00;2.03;;;20.90;55.30;;;;;;4977311;28;20535;-44
2022/05/12 00:59:22;;;;;;;2.03;1.83;;;20.90;55.40;;;;;;4979467;28;20466;-44
2022/05/12 01:01:50;;;;;;;1.83;1.73;;;20.80;55.60;;;;;;4976169;28;20562;-44
2022/05/12 01:04:20;;;;;;;1.70;1.60;;;20.80;55.80;;;;;;4976138;28;20494;-44
2022/05/12 01:06:47;;;;;;;1.70;1.60;;;20.80;56.10;;;;;;4976360;28;20469;-44
2022/05/12 01:09:13;;;;;;;2.43;1.80;;;20.80;56.20;;;;;;4973194;28;21091;-44
2022/05/12 01:11:40;;;;;;;1.83;1.73;;;20.80;56.20;;;;;;4964824;28;20514;-44
2022/05/12 01:14:08;;;;;;;4.27;1.87;;;20.80;56.20;;;;;;4971509;28;20935;-44
2022/05/12 01:16:48;;;;;;;4.03;2.37;;;20.80;56.30;;;;;;4960348;28;20465;-44
2022/05/12 01:19:37;;;;;;;1.77;1.50;;;20.80;56.70;;;;;;4965122;28;20903;-44
2022/05/12 01:22:08;;;;;;;2.10;1.77;;;20.70;56.80;;;;;;4975608;28;20477;-44
2022/05/12 01:24:42;;;;;;;2.30;1.80;;;20.70;57.10;;;;;;4960890;28;20465;-44
2022/05/12 01:27:19;;;;;;;2.30;1.93;;;20.70;57.50;;;;;;4973838;28;20456;-44
2022/05/12 01:29:55;;;;;;;2.33;2.13;;;20.60;57.70;;;;;;4969907;28;20997;-44
2022/05/12 01:32:25;;;;;;;5.80;2.00;;;20.60;57.90;;;;;;4978325;28;20495;-44
2022/05/12 01:34:52;;;;;;;2.57;1.90;;;20.60;58.40;;;;;;4974810;28;21822;-44
2022/05/12 01:37:21;;;;;;;18.10;2.77;;;20.60;58.40;;;;;;4976125;28;20462;-44
2022/05/12 01:39:48;;;;;;;2.83;1.67;;;20.50;58.90;;;;;;4958316;28;21212;-44
2022/05/12 01:42:15;;;;;;;2.37;1.77;;;20.50;58.80;;;;;;4972561;28;20480;-44
2022/05/12 01:44:43;;;;;;;1.90;1.70;;;20.50;59.00;;;;;;4975941;28;20510;-44
2022/05/12 01:47:11;;;;;;;2.07;1.67;;;20.40;59.20;;;;;;4976305;28;20492;-44
2022/05/12 01:49:38;;;;;;;2.27;2.07;;;20.50;59.30;;;;;;4975094;28;20489;-44
2022/05/12 01:52:05;;;;;;;1.80;1.60;;;20.40;59.30;;;;;;4972723;28;20480;-44
2022/05/12 01:54:32;;;;;;;2.27;1.73;;;20.40;59.40;;;;;;4976921;28;20454;-44
2022/05/12 01:56:59;;;;;;;2.13;1.40;;;20.40;59.50;;;;;;4970419;28;21006;-44
2022/05/12 01:59:26;;;;;;;1.97;1.77;;;20.40;59.60;;;;;;4972844;28;20466;-44
2022/05/12 02:01:53;;;;;;;2.07;1.87;;;20.30;59.80;;;;;;4976743;28;20572;-44
2022/05/12 02:04:20;;;;;;;2.03;1.57;;;20.30;59.80;;;;;;4959370;28;20472;-43
2022/05/12 02:06:47;;;;;;;1.90;1.70;;;20.30;59.90;;;;;;4957907;28;20472;-43
2022/05/12 02:09:16;;;;;;;2.60;1.70;;;20.30;60.00;;;;;;4977978;28;20880;-43
2022/05/12 02:11:43;;;;;;;2.93;1.73;;;20.30;60.10;;;;;;4972091;28;20567;-43
2022/05/12 02:14:11;;;;;;;2.27;1.70;;;20.20;60.20;;;;;;4977606;28;20896;-43
2022/05/12 02:16:37;;;;;;;3.20;1.60;;;20.20;60.40;;;;;;4961998;28;20853;-43
2022/05/12 02:19:06;;;;;;;2.13;1.50;;;20.20;60.50;;;;;;4976583;28;20478;-43
2022/05/12 02:21:33;;;;;;;2.30;1.60;;;20.20;60.50;;;;;;4957858;28;20953;-44
2022/05/12 02:24:00;;;;;;;3.77;1.57;;;20.20;60.60;;;;;;4972845;28;20467;-44
2022/05/12 02:26:28;;;;;;;3.13;1.97;;;20.20;60.70;;;;;;4952109;28;20467;-44
2022/05/12 02:28:56;;;;;;;2.90;1.67;;;20.20;60.90;;;;;;4977364;28;20508;-44
2022/05/12 02:31:23;;;;;;;1.97;1.60;;;20.20;61.00;;;;;;4975711;28;20473;-44
2022/05/12 02:33:50;;;;;;;3.73;1.67;;;20.10;61.20;;;;;;4975788;28;21071;-47
2022/05/12 02:36:16;;;;;;;2.20;1.70;;;20.10;61.50;;;;;;4977777;28;20453;-47
2022/05/12 02:38:43;;;;;;;1.53;1.43;;;20.10;61.80;;;;;;4975587;28;20477;-46
2022/05/12 02:41:10;;;;;;;1.83;1.53;;;20.10;61.40;;;;;;4976043;28;20461;-44
2022/05/12 02:43:37;;;;;;;2.73;1.70;;;20.00;61.60;;;;;;4975218;28;20465;-44
2022/05/12 02:46:13;;;;;;;2.30;1.90;;;20.00;61.70;;;;;;4975712;28;20476;-44
2022/05/12 02:48:45;;;;;;;5.00;1.63;;;20.00;61.90;;;;;;4957500;28;20475;-44
2022/05/12 02:51:13;;;;;;;1.50;1.40;;;20.00;62.00;;;;;;4971666;28;20971;-44
2022/05/12 02:53:41;;;;;;;3.33;2.30;;;20.00;61.90;;;;;;4967777;28;20471;-43
2022/05/12 02:56:08;;;;;;;1.90;1.67;;;20.00;62.00;;;;;;4972818;28;20548;-43
2022/05/12 02:58:36;;;;;;;3.87;2.03;;;20.00;62.10;;;;;;4956998;28;20454;-44
2022/05/12 03:01:05;;;;;;;1.87;1.70;;;20.00;62.10;;;;;;4974353;28;20864;-44
2022/05/12 03:03:32;;;;;;;2.50;1.47;;;20.00;62.30;;;;;;4976713;28;20889;-43
2022/05/12 03:05:58;;;;;;;2.70;1.30;;;19.90;62.40;;;;;;4975073;28;20993;-44
2022/05/12 03:08:25;;;;;;;2.30;2.10;;;19.90;62.40;;;;;;4976871;28;21006;-44
2022/05/12 03:10:52;;;;;;;3.37;1.90;;;19.90;62.40;;;;;;4960066;28;20504;-44
2022/05/12 03:13:19;;;;;;;2.40;1.40;;;19.80;62.80;;;;;;4976878;28;20838;-44
2022/05/12 03:15:46;;;;;;;3.47;1.57;;;19.80;62.60;;;;;;4967742;28;20454;-44
2022/05/12 03:18:13;;;;;;;2.77;1.67;;;19.80;62.70;;;;;;4977846;28;20470;-44
2022/05/12 03:20:40;;;;;;;2.63;1.57;;;19.80;63.00;;;;;;4978704;28;20512;-44
2022/05/12 03:23:07;;;;;;;2.00;1.57;;;19.70;63.10;;;;;;4973813;28;20602;-44
2022/05/12 03:25:35;;;;;;;4.40;1.77;;;19.70;63.30;;;;;;4966544;28;20479;-44
2022/05/12 03:28:02;;;;;;;2.03;1.83;;;19.60;63.50;;;;;;4980413;28;20489;-44
2022/05/12 03:30:29;;;;;;;3.63;1.93;;;19.60;63.70;;;;;;4975296;28;20583;-45
2022/05/12 03:32:56;;;;;;;1.70;1.50;;;19.50;64.00;;;;;;4972773;28;20461;-44
2022/05/12 03:35:23;;;;;;;2.17;1.77;;;19.50;64.20;;;;;;4978283;28;22600;-45
2022/05/12 03:37:50;;;;;;;2.20;2.10;;;19.50;64.40;;;;;;4977311;28;20893;-44
2022/05/12 03:40:17;;;;;;;4.30;2.30;;;19.50;64.40;;;;;;4977388;28;20852;-44
2022/05/12 03:42:45;;;;;;;2.80;2.00;;;19.40;64.40;;;;;;4975781;28;20479;-44
2022/05/12 03:45:13;;;;;;;3.70;2.10;;;19.40;64.80;;;;;;4977148;28;20546;-44
2022/05/12 03:47:44;;;;;;;3.10;2.27;;;19.30;65.00;;;;;;4979765;28;20516;-44
2022/05/12 03:50:14;;;;;;;3.13;1.87;;;19.30;65.30;;;;;;4976053;28;20908;-44
2022/05/12 03:52:47;;;;;;;2.30;1.67;;;19.30;65.50;;;;;;4969989;28;20461;-44
2022/05/12 03:55:16;;;;;;;2.10;1.90;;;19.20;65.60;;;;;;4977842;28;20457;-44
2022/05/12 03:57:44;;;;;;;2.43;1.90;;;19.20;65.80;;;;;;4976702;28;20524;-44
2022/05/12 04:00:15;;;;;;;1.53;1.43;;;19.20;66.00;;;;;;4975809;28;20461;-44
2022/05/12 04:02:41;;;;;;;1.70;1.60;;;19.10;66.20;;;;;;4977366;28;20473;-44
2022/05/12 04:05:08;;;;;;;7.70;2.40;;;19.10;66.30;;;;;;4975063;28;20553;-44
2022/05/12 04:07:41;;;;;;;3.13;1.70;;;19.10;66.30;;;;;;4973527;28;20461;-44
2022/05/12 04:10:10;;;;;;;2.27;1.83;;;19.10;66.30;;;;;;4974779;28;20504;-44
2022/05/12 04:12:36;;;;;;;2.43;1.93;;;19.10;66.50;;;;;;4974966;28;20457;-43
2022/05/12 04:15:05;;;;;;;3.53;1.70;;;19.10;66.80;;;;;;4952075;28;20461;-43
2022/05/12 04:17:32;;;;;;;2.00;1.90;;;19.10;66.70;;;;;;4977112;28;20500;-43
2022/05/12 04:20:07;;;;;;;2.03;1.87;;;19.10;66.70;;;;;;4978447;28;20785;-43
2022/05/12 04:22:34;;;;;;;3.20;2.00;;;19.10;66.70;;;;;;4979694;28;20501;-43
2022/05/12 04:25:01;;;;;;;1.83;1.53;;;19.10;67.00;;;;;;4976536;28;21070;-43
2022/05/12 04:27:28;;;;;;;2.20;1.97;;;19.10;66.90;;;;;;4980306;28;20554;-43
2022/05/12 04:29:55;;;;;;;6.63;2.13;;;19.10;67.00;;;;;;4970790;28;20489;-43
2022/05/12 04:32:21;;;;;;;2.80;1.87;;;19.10;67.00;;;;;;4975945;28;20570;-44
2022/05/12 04:37:34;;;;;;;2.20;2.00;;;19.10;67.10;;;;;;4975507;28;20527;-43
2022/05/12 04:40:07;;;;;;;5.03;1.90;;;19.20;67.10;;;;;;4975335;28;20509;-44
2022/05/12 04:42:34;;;;;;;1.93;1.83;;;19.20;66.90;;;;;;4970506;28;20472;-44
2022/05/12 04:45:01;;;;;;;4.00;2.17;;;19.20;66.70;;;;;;4972353;28;20461;-44
2022/05/12 04:47:28;;;;;;;2.30;1.80;;;19.20;66.80;;;;;;4971249;28;20540;-44
2022/05/12 04:49:56;;;;;;;3.57;2.50;;;19.20;66.70;;;;;;4975617;28;20533;-43
2022/05/12 04:52:23;;;;;;;1.80;1.53;;;19.20;66.60;;;;;;4973973;28;20886;-43
2022/05/12 04:54:50;;;;;;;2.27;2.07;;;19.20;66.30;;;;;;4976867;28;20477;-44
2022/05/12 04:57:17;;;;;;;2.80;1.87;;;19.30;66.10;;;;;;4974664;28;20473;-43
2022/05/12 04:59:49;;;;;;;2.17;1.70;;;19.30;66.30;;;;;;4974630;28;20468;-43
2022/05/12 05:02:16;;;;;;;2.60;1.90;;;19.30;66.30;;;;;;4959163;28;20477;-43
2022/05/12 05:04:43;;;;;;;2.70;1.40;;;19.30;66.40;;;;;;4952794;28;20477;-43
2022/05/12 05:07:12;;;;;;;4.87;2.50;;;19.30;66.60;;;;;;4967951;28;20481;-43
2022/05/12 05:09:40;;;;;;;2.80;1.73;;;19.30;66.80;;;;;;4974779;28;20489;-43
2022/05/12 05:12:07;;;;;;;2.47;1.83;;;19.30;66.70;;;;;;4969135;28;20457;-43
2022/05/12 05:14:34;;;;;;;2.87;1.57;;;19.30;66.80;;;;;;4966638;28;20453;-43
2022/05/12 05:17:01;;;;;;;5.03;1.80;;;19.30;66.50;;;;;;4972031;28;20701;-43
2022/05/12 05:19:28;;;;;;;4.53;1.53;;;19.30;66.70;;;;;;4974787;28;20966;-44
2022/05/12 05:21:55;;;;;;;2.60;1.53;;;19.30;66.70;;;;;;4957136;28;20461;-43
2022/05/12 05:24:23;;;;;;;2.73;1.70;;;19.30;66.60;;;;;;4974820;28;20460;-44
2022/05/12 05:26:49;;;;;;;3.00;2.47;;;19.30;66.80;;;;;;4962952;28;20488;-44
2022/05/12 05:29:16;;;;;;;2.53;1.80;;;19.30;66.80;;;;;;4972254;28;20651;-44
2022/05/12 05:31:43;;;;;;;3.10;2.10;;;19.30;67.00;;;;;;4972375;28;20485;-44
2022/05/12 05:34:10;;;;;;;3.70;1.70;;;19.40;66.50;;;;;;4966317;28;20492;-44
2022/05/12 05:36:39;;;;;;;2.40;2.20;;;19.40;66.40;;;;;;4974910;28;20457;-44
2022/05/12 05:39:07;;;;;;;2.97;1.70;;;19.40;66.60;;;;;;4976481;28;20461;-44
2022/05/12 05:41:37;;;;;;;4.20;1.57;;;19.40;66.40;;;;;;4977002;28;20508;-44
2022/05/12 05:44:04;;;;;;;2.50;2.10;;;19.40;66.40;;;;;;4975021;28;20469;-44
2022/05/12 05:46:31;;;;;;;2.00;1.57;;;19.40;66.40;;;;;;4976254;28;20465;-44
2022/05/12 05:48:57;;;;;;;2.30;1.70;;;19.40;66.70;;;;;;4958237;28;20465;-44
2022/05/12 05:54:10;;;;;;;2.07;1.50;;;19.40;65.00;;;;;;4978170;28;20467;-49
2022/05/12 05:56:36;;;;;;;4.07;1.53;;;19.40;63.50;;;;;;4971508;28;20470;-48
2022/05/12 05:59:03;;;;;;;2.30;1.60;;;19.40;63.30;;;;;;4975599;28;20464;-49
2022/05/12 06:01:30;;;;;;;3.33;1.40;;;19.40;63.50;;;;;;4976708;28;20475;-49
2022/05/12 06:03:58;;;;;;;3.77;1.33;;;19.40;63.10;;;;;;4972471;28;20950;-48
2022/05/12 06:06:25;;;;;;;2.07;1.23;;;19.50;63.10;;;;;;4972953;28;20478;-48
2022/05/12 06:08:52;;;;;;;3.83;1.50;;;19.50;62.80;;;;;;4972766;28;20475;-48
2022/05/12 06:11:19;;;;;;;2.60;1.47;;;19.60;62.60;;;;;;4976220;28;20486;-48
2022/05/12 06:13:48;;;;;;;2.90;1.23;;;19.60;62.50;;;;;;4976245;28;20465;-49
2022/05/12 06:16:15;;;;;;;2.23;1.23;;;19.60;61.70;;;;;;4975183;28;20469;-48
2022/05/12 06:18:42;;;;;;;1.20;0.90;;;19.70;61.00;;;;;;4974976;28;20475;-48
2022/05/12 06:21:11;;;;;;;3.50;1.80;;;19.70;61.20;;;;;;4951388;28;20474;-48
2022/05/12 06:23:39;;;;;;;1.50;1.40;;;19.70;61.90;;;;;;4978532;28;20524;-49
2022/05/12 06:26:13;;;;;;;3.37;1.40;;;19.70;62.50;;;;;;4979327;28;20532;-49
2022/05/12 06:28:45;;;;;;;2.60;1.70;;;19.70;61.70;;;;;;4977793;28;20727;-48
2022/05/12 06:31:15;;;;;;;2.70;1.60;;;19.70;61.40;;;;;;4963326;28;21212;-48
2022/05/12 06:33:42;;;;;;;4.03;1.57;;;19.70;61.60;;;;;;4979165;28;21006;-49
2022/05/12 06:36:09;;;;;;;2.00;1.30;;;19.80;61.50;;;;;;4977246;28;20559;-49
2022/05/12 06:38:36;;;;;;;3.40;1.10;;;19.80;61.30;;;;;;4971494;28;21046;-49
2022/05/12 06:41:04;;;;;;;4.00;1.37;;;19.90;61.90;;;;;;4954382;28;20477;-49
2022/05/12 06:43:31;;;;;;;2.20;2.00;;;20.00;60.90;;;;;;4977794;28;20932;-49
2022/05/12 06:45:58;;;;;;;3.37;1.47;;;20.10;60.50;;;;;;4977166;28;20474;-47
2022/05/12 06:48:25;;;;;;;2.30;1.60;;;20.10;59.90;;;;;;4977695;28;20470;-48
2022/05/12 06:50:53;;;;;;;3.10;1.60;;;20.20;60.30;;;;;;4976666;28;20499;-47
2022/05/12 06:53:19;;;;;;;4.53;1.27;;;20.20;59.60;;;;;;4977130;28;20468;-48
2022/05/12 06:55:46;;;;;;;3.40;1.63;;;20.30;58.90;;;;;;4959919;28;20477;-48
2022/05/12 06:58:17;;;;;;;1.90;1.50;;;20.30;59.10;;;;;;4971989;28;20557;-44
2022/05/12 07:00:45;;;;;;;1.93;1.60;;;20.40;58.80;;;;;;4969643;28;20474;-44
2022/05/12 07:03:13;;;;;;;1.60;1.30;;;20.50;59.00;;;;;;4972486;28;20967;-44
2022/05/12 07:05:41;;;;;;;2.10;1.40;;;20.60;57.20;;;;;;4971636;28;20524;-44
2022/05/12 07:08:09;;;;;;;1.90;1.70;;;20.70;57.00;;;;;;4972386;28;21240;-44
2022/05/12 07:10:36;;;;;;;1.73;1.50;;;20.80;56.80;;;;;;4973987;28;20497;-44
2022/05/12 07:13:03;;;;;;;3.40;1.40;;;20.90;56.50;;;;;;4974937;28;20468;-44
2022/05/12 07:15:30;;;;;;;6.83;2.30;;;20.90;57.40;;;;;;4976712;28;20663;-44
2022/05/12 07:17:59;;;;;;;1.73;1.60;;;20.80;57.60;;;;;;4977139;28;21085;-44
2022/05/12 07:28:43;;;;;;;3.20;1.27;;;21.10;57.30;;;;;;4977841;28;20468;-43
2022/05/12 07:31:10;;;;;;;3.30;1.53;;;21.20;57.30;;;;;;4978188;28;20900;-43
2022/05/12 07:33:40;;;;;;;3.97;1.57;;;21.30;56.10;;;;;;4977117;28;20520;-43
2022/05/12 07:36:28;;;;;;;2.20;1.57;;;21.40;55.80;;;;;;4977169;28;20536;-44
2022/05/12 07:38:56;;;;;;;2.80;2.00;;;21.40;55.90;;;;;;4960823;28;20552;-44
2022/05/12 07:41:24;;;;;;;2.30;1.43;;;21.30;56.50;;;;;;4959929;28;20466;-43
2022/05/12 07:43:51;;;;;;;3.67;1.90;;;21.30;55.90;;;;;;4974135;28;20808;-44
2022/05/12 07:46:20;;;;;;;2.30;1.50;;;21.20;57.10;;;;;;4975968;28;20477;-43
2022/05/12 07:48:47;;;;;;;2.30;1.67;;;21.20;56.30;;;;;;4972397;28;20542;-44
2022/05/12 07:51:15;;;;;;;4.13;1.83;;;21.20;56.00;;;;;;4954901;28;20488;-44
2022/05/12 07:53:42;;;;;;;2.50;1.60;;;21.20;56.40;;;;;;4955837;28;20984;-44
2022/05/12 07:56:10;;;;;;;2.60;1.60;;;21.20;56.10;;;;;;4975919;28;20871;-44
2022/05/12 07:58:36;;;;;;;3.50;1.83;;;21.40;55.50;;;;;;4974862;28;20456;-44
2022/05/12 08:01:03;;;;;;;4.10;1.97;;;21.50;56.10;;;;;;4957194;28;20469;-44
2022/05/12 08:03:30;;;;;;;3.10;2.33;;;21.70;54.70;;;;;;4973761;28;20571;-44
2022/05/12 08:05:59;;;;;;;4.33;2.07;;;21.90;54.10;;;;;;4975202;28;20469;-44
2022/05/12 08:08:27;;;;;;;4.30;1.97;;;22.00;53.50;;;;;;4973945;28;20503;-44
2022/05/12 08:10:54;;;;;;;1.93;1.60;;;22.20;54.50;;;;;;4976933;28;20493;-44
2022/05/12 08:13:22;;;;;;;3.50;1.27;;;22.30;54.10;;;;;;4966292;28;20457;-44
2022/05/12 08:15:50;;;;;;;2.00;1.20;;;22.30;53.60;;;;;;4965923;28;20461;-44
2022/05/12 08:18:19;;;;;;;3.03;1.60;;;22.50;52.90;;;;;;4978248;28;20551;-44
2022/05/12 08:20:46;;;;;;;2.50;1.80;;;22.60;52.70;;;;;;4977481;28;20477;-44
2022/05/12 08:23:13;;;;;;;2.90;1.37;;;22.80;53.90;;;;;;4976688;28;20475;-44
2022/05/12 08:25:41;;;;;;;6.33;1.87;;;22.90;52.20;;;;;;4976583;28;20468;-45
2022/05/12 08:28:08;;;;;;;2.33;1.83;;;23.00;52.60;;;;;;4979889;28;20579;-44
2022/05/12 08:30:35;;;;;;;4.97;1.73;;;23.20;51.70;;;;;;4980437;28;20660;-44
2022/05/12 08:33:02;;;;;;;2.30;1.63;;;23.30;51.40;;;;;;4980159;28;20464;-44
2022/05/12 08:35:28;;;;;;;2.43;1.47;;;23.50;52.00;;;;;;4978522;28;20551;-44
2022/05/12 08:37:55;;;;;;;3.53;1.53;;;23.70;50.70;;;;;;4977004;28;20457;-44
2022/05/12 08:40:52;;;;;;;2.63;1.33;;;23.80;50.40;;;;;;4957864;28;20467;-44
2022/05/12 08:43:25;;;;;;;2.60;1.50;;;23.90;50.70;;;;;;4975378;28;20460;-44
2022/05/12 08:45:55;;;;;;;6.00;1.30;;;24.00;50.50;;;;;;4965057;28;20465;-44
2022/05/12 08:48:23;;;;;;;2.50;1.60;;;24.00;49.70;;;;;;4957505;28;20882;-44
2022/05/12 08:50:53;;;;;;;3.43;1.80;;;24.00;49.80;;;;;;4957289;28;20499;-44
2022/05/12 08:53:25;;;;;;;2.17;1.40;;;24.10;49.80;;;;;;4978045;28;20961;-44
2022/05/12 08:55:57;;;;;;;2.00;1.10;;;24.20;49.20;;;;;;4977337;28;20996;-44
2022/05/12 08:58:35;;;;;;;3.30;1.30;;;24.40;48.90;;;;;;4979999;28;20872;-44
2022/05/12 09:01:08;;;;;;;2.13;1.53;;;24.30;49.20;;;;;;4976849;28;20970;-44
2022/05/12 09:04:10;;;;;;;1.27;1.13;;;24.10;49.60;;;;;;4981182;28;20457;-44
2022/05/12 09:06:49;;;;;;;5.10;1.60;;;23.90;49.00;;;;;;4978005;28;20475;-44
2022/05/12 09:09:32;;;;;;;3.13;1.60;;;23.70;49.60;;;;;;4979768;28;20540;-44
2022/05/12 09:12:24;;;;;;;3.27;1.60;;;23.60;51.20;;;;;;4963508;28;20877;-44
2022/05/12 09:15:03;;;;;;;3.23;1.47;;;23.80;50.00;;;;;;4977569;28;20459;-45
2022/05/12 09:18:01;;;;;;;5.13;1.10;;;24.00;48.70;;;;;;4981246;28;20456;-45
2022/05/12 09:20:32;;;;;;;2.83;1.23;;;24.10;49.70;;;;;;4974606;28;20982;-44
2022/05/12 09:23:00;;;;;;;2.10;1.20;;;24.20;48.20;;;;;;4978955;28;20563;-45
2022/05/12 09:25:35;;;;;;;3.93;1.60;;;24.40;48.30;;;;;;4978866;28;20467;-44
2022/05/12 09:28:19;;;;;;;1.47;0.97;;;24.50;48.10;;;;;;4976744;28;20459;-44
2022/05/12 09:30:48;;;;;;;3.67;1.10;;;24.50;47.40;;;;;;4981948;28;20490;-45
2022/05/12 09:33:29;;;;;;;4.10;1.70;;;24.60;48.20;;;;;;4979443;28;20725;-45
2022/05/12 09:35:58;;;;;;;2.33;1.20;;;24.50;48.00;;;;;;4981938;28;21016;-45
2022/05/12 09:38:26;;;;;;;2.00;1.03;;;24.40;48.40;;;;;;4977045;28;20829;-45
2022/05/12 09:40:54;;;;;;;1.87;1.23;;;24.40;48.10;;;;;;4981622;28;20969;-44
2022/05/12 09:43:32;;;;;;;6.70;1.97;;;24.50;48.00;;;;;;4979129;28;20917;-44
2022/05/12 09:46:05;;;;;;;3.13;1.37;;;24.60;47.00;;;;;;4977052;28;20995;-44
2022/05/12 09:48:37;;;;;;;1.60;1.10;;;24.80;47.00;;;;;;4955006;28;20464;-44
2022/05/12 09:51:18;;;;;;;3.33;1.30;;;25.00;46.20;;;;;;4967583;28;21356;-45
2022/05/12 09:53:44;;;;;;;1.93;1.13;;;25.00;46.50;;;;;;4981551;28;20477;-45
2022/05/12 09:56:25;;;;;;;2.13;1.30;;;25.20;46.30;;;;;;4967957;28;20445;-45
2022/05/12 09:59:01;;;;;;;1.10;1.00;;;25.50;46.90;;;;;;4979715;28;20466;-45
2022/05/12 10:01:30;;;;;;;4.43;1.60;;;25.80;45.80;;;;;;4983233;28;20562;-45
2022/05/12 10:10:13;;;;;;;2.20;1.03;;;26.20;44.40;;;;;;4977873;28;20981;-45
2022/05/12 10:12:48;;;;;;;1.57;0.90;;;26.20;43.30;;;;;;4979116;28;20616;-45
2022/05/12 10:15:21;;;;;;;2.60;1.20;;;26.20;43.10;;;;;;4981140;28;20468;-45
2022/05/12 10:17:56;;;;;;;1.80;1.20;;;26.30;42.80;;;;;;4979948;28;20448;-45
2022/05/12 10:20:27;;;;;;;1.50;1.10;;;26.40;43.80;;;;;;4980915;28;20433;-45
2022/05/12 10:23:03;;;;;;;2.63;1.03;;;26.30;43.40;;;;;;4976908;28;20463;-44
2022/05/12 10:25:56;;;;;;;1.07;0.97;;;26.20;43.50;;;;;;4977882;28;20461;-44
2022/05/12 10:28:43;;;;;;;1.83;0.97;;;26.20;43.20;;;;;;4983394;28;20455;-44
2022/05/12 10:31:19;;;;;;;1.87;1.03;;;25.90;43.50;;;;;;4974991;28;20911;-44
2022/05/12 10:33:56;;;;;;;2.93;0.90;;;25.60;43.60;;;;;;4975488;28;20483;-44
2022/05/12 10:36:44;;;;;;;1.53;1.10;;;25.30;44.30;;;;;;4980051;28;20441;-44
2022/05/12 10:39:23;;;;;;;2.70;1.13;;;24.90;45.40;;;;;;4976145;28;20770;-45
2022/05/12 10:42:08;;;;;;;2.60;1.03;;;24.50;45.90;;;;;;4975793;28;20965;-45
2022/05/12 10:44:41;;;;;;;1.67;1.00;;;24.30;45.90;;;;;;4978634;28;20469;-45
2022/05/12 10:47:25;;;;;;;5.60;1.73;;;24.20;47.00;;;;;;4976584;28;20996;-45
2022/05/12 10:50:07;;;;;;;2.37;1.77;;;24.20;46.60;;;;;;4962617;28;20472;-45
2022/05/12 10:52:43;;;;;;;2.13;1.10;;;24.10;46.50;;;;;;4979944;28;20860;-45
2022/05/12 10:55:32;;;;;;;1.80;0.87;;;24.00;46.90;;;;;;4977452;28;20850;-45
2022/05/12 10:58:26;;;;;;;2.10;0.90;;;24.00;47.10;;;;;;4978004;28;20464;-45
2022/05/12 11:01:22;;;;;;;3.00;0.93;;;23.90;47.40;;;;;;4979123;28;20460;-45
2022/05/12 11:03:57;;;;;;;2.00;1.20;;;23.80;46.70;;;;;;4979803;28;20527;-45
2022/05/12 11:06:30;;;;;;;2.40;1.40;;;23.80;47.10;;;;;;4979322;28;20526;-45
2022/05/12 11:09:06;;;;;;;2.00;1.00;;;23.80;47.80;;;;;;4976541;28;20988;-45
2022/05/12 11:11:39;;;;;;;1.60;0.80;;;23.70;46.80;;;;;;4979088;28;20486;-45
2022/05/12 11:14:31;;;;;;;0.90;0.80;;;23.60;47.60;;;;;;4979125;28;20460;-45
2022/05/12 11:17:18;;;;;;;1.30;0.93;;;23.60;47.60;;;;;;4962891;28;21019;-44
2022/05/12 11:20:18;;;;;;;4.30;0.87;;;23.50;47.10;;;;;;4979947;28;20474;-44
2022/05/12 11:23:07;;;;;;;2.67;0.93;;;23.60;47.80;;;;;;4971480;28;20456;-44
2022/05/12 11:25:44;;;;;;;4.30;1.07;;;23.50;47.50;;;;;;4972650;28;20472;-44
2022/05/12 11:31:43;;;;;;;1.90;0.80;;;23.40;47.40;;;;;;4979560;28;20492;-44
2022/05/12 11:34:16;;;;;;;3.97;1.30;;;23.40;47.20;;;;;;4980438;28;20663;-44
2022/05/12 11:36:45;;;;;;;3.93;1.10;;;23.50;48.10;;;;;;4960057;28;20469;-44
2022/05/12 11:39:29;;;;;;;1.50;1.00;;;23.40;47.40;;;;;;4977729;28;20450;-44
2022/05/12 11:42:05;;;;;;;4.43;0.97;;;23.40;47.60;;;;;;4977032;28;20437;-44
2022/05/12 11:44:39;;;;;;;2.00;0.90;;;23.40;47.10;;;;;;4978386;28;20460;-44
2022/05/12 11:47:36;;;;;;;1.93;0.90;;;23.50;47.70;;;;;;4982232;28;20466;-44
2022/05/12 11:50:30;;;;;;;1.63;0.77;;;23.60;47.60;;;;;;4961401;28;20472;-44
2022/05/12 11:53:12;;;;;;;2.07;0.80;;;23.60;46.80;;;;;;4974698;28;21013;-44
2022/05/12 11:56:05;;;;;;;2.33;1.10;;;23.60;46.80;;;;;;4982894;28;21298;-45
2022/05/12 11:59:10;;;;;;;2.60;0.80;;;23.70;47.10;;;;;;4970257;28;20479;-44
2022/05/12 12:01:39;;;;;;;3.50;1.00;;;23.70;46.70;;;;;;4979883;28;20473;-44
2022/05/12 12:04:14;;;;;;;2.23;0.80;;;23.70;46.10;;;;;;4979618;28;20905;-44
2022/05/12 12:06:42;;;;;;;1.47;1.00;;;23.70;46.20;;;;;;4964566;28;20904;-44
2022/05/12 12:09:37;;;;;;;2.50;0.80;;;23.70;47.10;;;;;;4972853;28;20458;-44
2022/05/12 12:12:07;;;;;;;2.40;0.97;;;23.80;45.50;;;;;;4968080;28;20496;-44
2022/05/12 12:14:43;;;;;;;2.20;0.83;;;23.80;46.40;;;;;;4966689;28;20469;-44
2022/05/12 12:17:27;;;;;;;1.20;1.10;;;23.80;46.40;;;;;;4964602;28;20468;-48
2022/05/12 12:20:04;;;;;;;1.33;0.73;;;23.80;45.80;;;;;;4981682;28;20464;-48
2022/05/12 12:22:46;;;;;;;3.47;0.90;;;23.70;46.10;;;;;;4976578;28;20468;-48
2022/05/12 12:25:37;;;;;;;3.90;1.10;;;23.70;46.70;;;;;;4979167;28;20465;-48
2022/05/12 12:28:19;;;;;;;3.17;1.50;;;23.70;45.70;;;;;;4982529;28;20516;-48
2022/05/12 12:30:56;;;;;;;4.00;1.10;;;23.70;46.30;;;;;;4982575;28;20481;-48
2022/05/12 12:33:25;;;;;;;3.60;0.87;;;23.60;45.20;;;;;;4978702;28;20491;-48
2022/05/12 12:36:12;;;;;;;2.03;0.83;;;23.60;46.10;;;;;;4985284;28;20495;-48
2022/05/12 12:38:48;;;;;;;1.70;1.00;;;23.70;46.30;;;;;;4963936;28;20467;-48
2022/05/12 12:41:17;;;;;;;2.03;1.10;;;23.80;45.30;;;;;;4982900;28;20499;-48
2022/05/12 12:44:15;;;;;;;1.73;0.83;;;23.80;46.10;;;;;;4979879;28;20465;-48
2022/05/12 12:47:22;;;;;;;2.10;1.00;;;23.70;46.50;;;;;;4982113;28;20514;-48
2022/05/12 12:50:15;;;;;;;4.30;1.00;;;23.70;47.00;;;;;;4976082;28;20473;-48
2022/05/12 12:52:44;;;;;;;2.97;1.17;;;23.80;46.60;;;;;;4952088;28;20508;-48
2022/05/12 12:58:11;;;;;;;1.27;1.10;;;23.90;45.60;;;;;;4977146;28;20465;-48
2022/05/12 13:00:38;;;;;;;1.57;0.90;;;24.00;46.50;;;;;;4979133;28;20475;-48
2022/05/12 13:03:07;;;;;;;1.10;1.00;;;24.10;45.30;;;;;;4978389;28;20551;-48
2022/05/12 13:05:36;;;;;;;1.93;1.10;;;24.10;44.70;;;;;;4981588;28;20459;-48
2022/05/12 13:08:19;;;;;;;3.50;1.63;;;24.10;45.30;;;;;;4978940;28;20465;-49
2022/05/12 13:10:49;;;;;;;3.30;0.93;;;24.20;44.60;;;;;;4974014;28;20496;-49
2022/05/12 13:13:16;;;;;;;2.50;1.07;;;24.20;44.30;;;;;;4981800;28;20722;-49
2022/05/12 13:15:45;;;;;;;2.73;1.40;;;24.10;45.10;;;;;;4969894;28;20522;-49
2022/05/12 13:18:21;;;;;;;3.67;0.87;;;24.10;47.40;;;;;;4968145;28;20456;-49
2022/05/12 13:20:57;;;;;;;4.03;1.60;;;24.20;45.80;;;;;;4978363;28;20461;-49
2022/05/12 13:23:24;;;;;;;11.27;3.00;;;24.20;45.20;;;;;;4977248;28;21016;-49
2022/05/12 13:25:52;;;;;;;2.30;1.00;;;24.30;44.80;;;;;;4982179;28;20456;-49
2022/05/12 13:28:24;;;;;;;2.97;1.27;;;24.30;45.30;;;;;;4974981;28;20461;-49
2022/05/12 13:31:21;;;;;;;1.80;1.00;;;24.30;45.00;;;;;;4960445;28;20522;-49
2022/05/12 13:34:13;;;;;;;3.83;1.30;;;24.40;45.10;;;;;;4973560;28;20886;-49
2022/05/12 13:36:46;;;;;;;2.77;1.20;;;24.40;44.20;;;;;;4979004;28;21001;-49
2022/05/12 13:39:39;;;;;;;2.50;0.97;;;24.50;45.50;;;;;;4973073;28;22425;-49